createdAt,value
2022-09-09T00:02:16.914Z,17.23
2022-09-09T00:04:56.529Z,17.21
2022-09-09T00:07:48.871Z,17.18
2022-09-09T00:10:30.687Z,17.13
2022-09-09T00:13:02.897Z,17.12
2022-09-09T00:15:52.711Z,17.10
2022-09-09T00:18:51.645Z,17.06
2022-09-09T00:21:23.819Z,17.03
2022-09-09T00:23:55.283Z,17.01
2022-09-09T00:26:41.744Z,16.99
2022-09-09T00:29:15.450Z,16.97
2022-09-09T00:31:43.347Z,16.92
2022-09-09T00:34:15.940Z,16.86
2022-09-09T00:36:45.542Z,16.80
2022-09-09T00:39:36.181Z,16.75
2022-09-09T00:42:27.972Z,16.73
2022-09-09T00:45:18.629Z,16.74
2022-09-09T00:47:51.080Z,16.75
2022-09-09T00:50:53.593Z,16.78
2022-09-09T00:53:43.427Z,16.78
2022-09-09T00:56:21.823Z,16.77
2022-09-09T00:59:09.380Z,16.77
2022-09-09T01:01:37.973Z,16.78
2022-09-09T01:04:21.956Z,16.79
2022-09-09T01:06:55.805Z,16.80
2022-09-09T01:09:37.678Z,16.79
2022-09-09T01:12:28.208Z,16.75
2022-09-09T01:15:09.870Z,16.72
2022-09-09T01:17:59.119Z,16.71
2022-09-09T01:20:38.381Z,16.69
2022-09-09T01:23:12.528Z,16.70
2022-09-09T01:26:01.839Z,16.70
2022-09-09T01:28:32.352Z,16.73
2022-09-09T01:31:07.335Z,16.75
2022-09-09T01:33:41.675Z,16.77
2022-09-09T01:36:16.032Z,16.78
2022-09-09T01:38:51.229Z,16.80
2022-09-09T01:41:20.111Z,16.81
2022-09-09T01:43:55.939Z,16.80
2022-09-09T01:46:25.238Z,16.75
2022-09-09T01:48:55.007Z,16.73
2022-09-09T01:51:24.193Z,16.72
2022-09-09T01:53:52.759Z,16.71
2022-09-09T01:56:36.910Z,16.70
2022-09-09T01:59:19.613Z,16.72
2022-09-09T02:02:16.909Z,16.75
2022-09-09T02:05:06.590Z,16.77
2022-09-09T02:07:52.702Z,16.77
2022-09-09T02:10:56.652Z,16.76
2022-09-09T02:13:39.353Z,16.72
2022-09-09T02:16:24.999Z,16.71
2022-09-09T02:19:25.933Z,16.68
2022-09-09T02:22:03.034Z,16.65
2022-09-09T02:24:36.519Z,16.61
2022-09-09T02:27:15.677Z,16.48
2022-09-09T02:29:48.332Z,16.31
2022-09-09T02:32:23.867Z,16.25
2022-09-09T02:34:58.270Z,16.20
2022-09-09T02:37:33.150Z,16.20
2022-09-09T02:40:01.354Z,16.23
2022-09-09T02:42:30.701Z,16.27
2022-09-09T02:44:59.621Z,16.32
2022-09-09T02:47:47.800Z,16.37
2022-09-09T02:50:32.964Z,16.42
2022-09-09T02:53:06.844Z,16.47
2022-09-09T02:55:40.987Z,16.51
2022-09-09T02:58:19.708Z,16.56
2022-09-09T03:00:56.523Z,16.58
2022-09-09T03:03:25.327Z,16.60
2022-09-09T03:05:53.911Z,16.60
2022-09-09T03:08:21.943Z,16.59
2022-09-09T03:10:50.298Z,16.59
2022-09-09T03:13:20.385Z,16.60
2022-09-09T03:15:49.903Z,16.60
2022-09-09T03:18:18.976Z,16.59
2022-09-09T03:20:52.501Z,16.59
2022-09-09T03:23:21.737Z,16.59
2022-09-09T03:25:53.402Z,16.59
2022-09-09T03:28:32.301Z,16.60
2022-09-09T03:31:02.453Z,16.61
2022-09-09T03:33:32.903Z,16.62
2022-09-09T03:36:01.037Z,16.65
2022-09-09T03:38:29.908Z,16.67
2022-09-09T03:41:01.304Z,16.71
2022-09-09T03:43:30.563Z,16.73
2022-09-09T03:45:59.284Z,16.75
2022-09-09T03:48:29.386Z,16.76
2022-09-09T03:50:59.201Z,16.79
2022-09-09T03:53:28.927Z,16.80
2022-09-09T03:56:00.982Z,16.80
2022-09-09T03:58:30.560Z,16.79
2022-09-09T04:01:11.952Z,16.79
2022-09-09T04:03:41.163Z,16.81
2022-09-09T04:06:12.854Z,16.83
2022-09-09T04:08:42.592Z,16.82
2022-09-09T04:11:10.803Z,16.80
2022-09-09T04:13:40.373Z,16.78
2022-09-09T04:16:12.589Z,16.79
2022-09-09T04:18:42.090Z,16.80
2022-09-09T04:21:13.806Z,16.79
2022-09-09T04:23:42.287Z,16.79
2022-09-09T04:26:11.152Z,16.78
2022-09-09T04:28:39.212Z,16.81
2022-09-09T04:31:24.732Z,16.85
2022-09-09T04:33:55.292Z,16.88
2022-09-09T04:36:23.958Z,16.90
2022-09-09T04:38:54.132Z,16.93
2022-09-09T04:41:22.532Z,16.95
2022-09-09T04:43:53.363Z,16.96
2022-09-09T04:46:24.107Z,16.98
2022-09-09T04:48:53.923Z,16.99
2022-09-09T04:51:22.947Z,16.97
2022-09-09T04:53:52.162Z,16.96
2022-09-09T04:56:21.234Z,16.98
2022-09-09T04:58:52.553Z,17.02
2022-09-09T05:01:25.508Z,17.06
2022-09-09T05:03:55.477Z,17.10
2022-09-09T05:06:25.851Z,17.13
2022-09-09T05:08:59.394Z,17.16
2022-09-09T05:11:33.436Z,17.16
2022-09-09T05:14:05.510Z,17.14
2022-09-09T05:16:33.560Z,17.13
2022-09-09T05:19:04.344Z,17.11
2022-09-09T05:21:45.414Z,17.07
2022-09-09T05:24:14.175Z,17.04
2022-09-09T05:26:42.649Z,17.03
2022-09-09T05:29:10.870Z,16.99
2022-09-09T05:31:40.408Z,16.98
2022-09-09T05:34:12.450Z,17.00
2022-09-09T05:36:41.045Z,17.05
2022-09-09T05:39:09.454Z,17.10
2022-09-09T05:41:37.400Z,17.13
2022-09-09T05:44:06.647Z,17.17
2022-09-09T05:46:39.220Z,17.22
2022-09-09T05:49:07.362Z,17.26
2022-09-09T05:51:35.801Z,17.30
2022-09-09T05:54:08.059Z,17.35
2022-09-09T05:56:38.982Z,17.39
2022-09-09T05:59:08.245Z,17.42
2022-09-09T06:01:41.918Z,17.45
2022-09-09T06:04:13.539Z,17.48
2022-09-09T06:06:43.099Z,17.51
2022-09-09T06:09:17.063Z,17.51
2022-09-09T06:11:46.770Z,17.51
2022-09-09T06:14:15.840Z,17.51
2022-09-09T06:16:46.372Z,17.52
2022-09-09T06:19:18.986Z,17.53
2022-09-09T06:21:48.805Z,17.52
2022-09-09T06:24:20.486Z,17.49
2022-09-09T06:26:48.585Z,17.50
2022-09-09T06:29:25.849Z,17.49
2022-09-09T06:31:54.083Z,17.50
2022-09-09T06:34:24.168Z,17.50
2022-09-09T06:36:56.300Z,17.50
2022-09-09T06:39:24.553Z,17.51
2022-09-09T06:41:54.444Z,17.52
2022-09-09T06:44:41.486Z,17.53
2022-09-09T06:47:12.244Z,17.54
2022-09-09T06:49:41.069Z,17.57
2022-09-09T06:52:10.736Z,17.60
2022-09-09T06:54:39.131Z,17.61
2022-09-09T06:57:33.760Z,17.64
2022-09-09T06:59:56.691Z,17.68
2022-09-09T07:02:24.830Z,17.74
2022-09-09T07:04:53.397Z,17.79
2022-09-09T07:07:21.389Z,17.85
2022-09-09T07:09:50.345Z,17.89
2022-09-09T07:12:18.572Z,17.93
2022-09-09T07:14:53.618Z,17.98
2022-09-09T07:17:21.603Z,18.02
2022-09-09T07:19:50.365Z,18.06
2022-09-09T07:22:18.463Z,18.07
2022-09-09T07:24:46.586Z,18.06
2022-09-09T07:27:15.140Z,18.07
2022-09-09T07:29:43.312Z,18.10
2022-09-09T07:32:11.655Z,18.14
2022-09-09T07:34:39.755Z,18.18
2022-09-09T07:37:07.989Z,18.19
2022-09-09T07:39:36.313Z,18.19
2022-09-09T07:42:05.504Z,18.17
2022-09-09T07:44:36.002Z,18.15
2022-09-09T07:47:10.829Z,18.17
2022-09-09T07:49:42.901Z,18.21
2022-09-09T07:52:13.298Z,18.26
2022-09-09T07:54:46.758Z,18.32
2022-09-09T07:57:16.602Z,18.39
2022-09-09T07:59:44.734Z,18.45
2022-09-09T08:02:12.867Z,18.51
2022-09-09T08:04:41.441Z,18.57
2022-09-09T08:07:09.678Z,18.65
2022-09-09T08:09:45.159Z,18.74
2022-09-09T08:12:25.521Z,18.82
2022-09-09T08:14:55.933Z,18.87
2022-09-09T08:17:26.157Z,18.90
2022-09-09T08:19:55.266Z,18.92
2022-09-09T08:22:27.336Z,18.99
2022-09-09T08:24:55.868Z,19.10
2022-09-09T08:27:24.460Z,19.21
2022-09-09T08:29:52.749Z,19.33
2022-09-09T08:32:21.250Z,19.45
2022-09-09T08:34:54.583Z,19.54
2022-09-09T08:37:24.343Z,19.58
2022-09-09T08:39:54.352Z,19.65
2022-09-09T08:42:35.167Z,19.72
2022-09-09T08:45:23.610Z,19.80
2022-09-09T08:48:18.449Z,19.88
2022-09-09T08:50:49.844Z,19.96
2022-09-09T08:53:39.474Z,20.02
2022-09-09T08:56:15.487Z,20.00
2022-09-09T08:58:52.144Z,19.98
2022-09-09T09:01:47.978Z,19.98
2022-09-09T09:04:41.512Z,19.98
2022-09-09T09:07:41.106Z,20.00
2022-09-09T09:10:30.702Z,19.98
2022-09-09T09:12:59.036Z,19.95
2022-09-09T09:15:37.554Z,19.89
2022-09-09T09:18:07.318Z,19.88
2022-09-09T09:20:49.312Z,19.89
2022-09-09T09:23:24.869Z,19.89
2022-09-09T09:26:00.801Z,19.87
2022-09-09T09:28:34.302Z,19.82
2022-09-09T09:31:13.811Z,19.78
2022-09-09T09:33:47.402Z,19.76
2022-09-09T09:36:16.958Z,19.75
2022-09-09T09:41:49.553Z,19.76
2022-09-09T09:44:28.470Z,19.77
2022-09-09T09:47:07.449Z,19.81
2022-09-09T09:49:35.889Z,19.82
2022-09-09T09:52:05.932Z,19.87
2022-09-09T09:54:40.124Z,19.94
2022-09-09T09:57:13.861Z,20.02
2022-09-09T09:59:43.866Z,20.07
2022-09-09T10:02:26.876Z,20.11
2022-09-09T10:05:13.713Z,20.14
2022-09-09T10:07:47.043Z,20.14
2022-09-09T10:10:25.242Z,20.11
2022-09-09T10:12:59.228Z,20.08
2022-09-09T10:15:45.420Z,20.06
2022-09-09T10:18:38.479Z,20.05
2022-09-09T10:21:44.047Z,20.07
2022-09-09T10:24:28.342Z,20.09
2022-09-09T10:27:26.580Z,20.11
2022-09-09T10:30:03.459Z,20.11
2022-09-09T10:32:42.666Z,20.10
2022-09-09T10:35:25.385Z,20.08
2022-09-09T10:38:12.173Z,20.09
2022-09-09T10:40:57.684Z,20.08
2022-09-09T10:43:35.566Z,20.09
2022-09-09T10:46:10.211Z,20.11
2022-09-09T10:49:06.514Z,20.10
2022-09-09T10:51:42.468Z,20.11
2022-09-09T10:54:41.198Z,20.10
2022-09-09T10:57:31.396Z,20.10
2022-09-09T11:00:06.020Z,20.10
2022-09-09T11:02:37.977Z,20.11
2022-09-09T11:05:21.156Z,20.14
2022-09-09T11:08:04.325Z,20.21
2022-09-09T11:10:41.968Z,20.24
2022-09-09T11:13:27.240Z,20.26
2022-09-09T11:16:21.806Z,20.34
2022-09-09T11:18:50.466Z,20.40
2022-09-09T11:21:33.859Z,20.46
2022-09-09T11:24:14.355Z,20.52
2022-09-09T11:26:50.887Z,20.57
2022-09-09T11:29:48.834Z,20.62
2022-09-09T11:32:35.423Z,20.65
2022-09-09T11:35:41.095Z,20.68
2022-09-09T11:38:12.175Z,20.68
2022-09-09T11:40:41.095Z,20.68
2022-09-09T11:43:23.941Z,20.70
2022-09-09T11:46:00.935Z,20.75
2022-09-09T11:48:34.315Z,20.77
2022-09-09T11:51:06.556Z,20.79
2022-09-09T11:53:55.860Z,20.82
2022-09-09T11:56:45.236Z,20.84
2022-09-09T11:59:28.080Z,20.85
2022-09-09T12:02:12.146Z,20.88
2022-09-09T12:04:52.326Z,20.88
2022-09-09T12:07:29.024Z,20.89
2022-09-09T12:10:20.538Z,20.91
2022-09-09T12:12:48.672Z,20.94
2022-09-09T12:15:16.674Z,20.97
2022-09-09T12:17:46.039Z,21.00
2022-09-09T12:20:14.438Z,21.04
2022-09-09T12:22:48.403Z,21.08
2022-09-09T12:25:32.988Z,21.14
2022-09-09T12:28:12.268Z,21.18
2022-09-09T12:31:19.252Z,21.23
2022-09-09T12:33:48.593Z,21.26
2022-09-09T12:36:31.427Z,21.29
2022-09-09T12:39:23.990Z,21.32
2022-09-09T12:41:57.807Z,21.37
2022-09-09T12:44:29.165Z,21.42
2022-09-09T12:47:02.159Z,21.47
2022-09-09T12:49:40.464Z,21.53
2022-09-09T12:52:28.017Z,21.59
2022-09-09T12:54:57.799Z,21.64
2022-09-09T12:57:27.670Z,21.71
2022-09-09T13:00:13.192Z,21.80
2022-09-09T13:03:00.259Z,21.91
2022-09-09T13:05:35.344Z,22.03
2022-09-09T13:08:10.440Z,22.08
2022-09-09T13:10:55.437Z,22.14
2022-09-09T13:13:31.203Z,22.20
2022-09-09T13:16:01.699Z,22.22
2022-09-09T13:18:39.327Z,22.25
2022-09-09T13:21:08.665Z,22.28
2022-09-09T13:23:38.687Z,22.32
2022-09-09T13:26:24.774Z,22.37
2022-09-09T13:28:54.610Z,22.40
2022-09-09T13:31:28.708Z,22.43
2022-09-09T13:33:57.505Z,22.42
2022-09-09T13:36:31.978Z,22.33
2022-09-09T13:39:02.762Z,22.27
2022-09-09T13:41:37.306Z,22.23
2022-09-09T13:44:07.715Z,22.20
2022-09-09T13:46:41.667Z,22.17
2022-09-09T13:49:12.574Z,22.13
2022-09-09T13:51:50.037Z,22.12
2022-09-09T13:54:23.051Z,22.09
2022-09-09T13:56:51.055Z,22.09
2022-09-09T13:59:21.133Z,22.07
2022-09-09T14:01:53.636Z,22.06
2022-09-09T14:04:22.288Z,22.04
2022-09-09T14:06:51.594Z,22.00
2022-09-09T14:09:20.148Z,21.94
2022-09-09T14:11:48.630Z,21.90
2022-09-09T14:14:16.770Z,21.87
2022-09-09T14:16:45.482Z,21.85
2022-09-09T14:19:13.472Z,21.80
2022-09-09T14:21:41.608Z,21.77
2022-09-09T14:24:09.630Z,21.73
2022-09-09T14:26:38.523Z,21.68
2022-09-09T14:29:06.517Z,21.64
2022-09-09T14:31:34.879Z,21.62
2022-09-09T14:34:02.882Z,21.59
2022-09-09T14:36:31.233Z,21.55
2022-09-09T14:38:59.608Z,21.52
2022-09-09T14:41:27.638Z,21.50
2022-09-09T14:43:55.531Z,21.47
2022-09-09T14:46:24.455Z,21.43
2022-09-09T14:51:28.486Z,21.34
2022-09-09T14:54:00.100Z,21.29
2022-09-09T14:56:30.879Z,21.26
2022-09-09T14:59:01.976Z,21.22
2022-09-09T15:01:31.922Z,21.16
2022-09-09T15:04:05.069Z,21.10
2022-09-09T15:06:38.399Z,21.03
2022-09-09T15:09:06.864Z,20.99
2022-09-09T15:11:39.029Z,20.97
2022-09-09T15:14:09.418Z,20.96
2022-09-09T15:16:37.923Z,20.93
2022-09-09T15:19:06.241Z,20.91
2022-09-09T15:21:36.661Z,20.88
2022-09-09T15:24:05.968Z,20.87
2022-09-09T15:26:33.979Z,20.86
2022-09-09T15:29:02.087Z,20.85
2022-09-09T15:31:32.890Z,20.83
2022-09-09T15:34:04.655Z,20.82
2022-09-09T15:36:44.181Z,20.82
2022-09-09T15:39:16.849Z,20.80
2022-09-09T15:41:49.108Z,20.76
2022-09-09T15:44:17.381Z,20.74
2022-09-09T15:46:49.672Z,20.73
2022-09-09T15:49:20.646Z,20.72
2022-09-09T15:51:58.389Z,20.70
2022-09-09T15:54:27.225Z,20.66
2022-09-09T15:56:57.782Z,20.64
2022-09-09T15:59:28.855Z,20.62
2022-09-09T16:01:58.079Z,20.62
2022-09-09T16:04:26.274Z,20.59
2022-09-09T16:06:56.777Z,20.57
2022-09-09T16:09:25.252Z,20.56
2022-09-09T16:11:54.335Z,20.54
2022-09-09T16:14:23.098Z,20.53
2022-09-09T16:16:51.088Z,20.51
2022-09-09T16:19:19.965Z,20.48
2022-09-09T16:21:49.788Z,20.46
2022-09-09T16:24:20.281Z,20.44
2022-09-09T16:26:50.672Z,20.44
2022-09-09T16:29:19.990Z,20.44
2022-09-09T16:31:49.259Z,20.43
2022-09-09T16:34:18.617Z,20.44
2022-09-09T16:36:48.101Z,20.43
2022-09-09T16:39:18.454Z,20.43
2022-09-09T16:41:48.710Z,20.41
2022-09-09T16:44:19.947Z,20.39
2022-09-09T16:46:50.096Z,20.35
2022-09-09T16:49:18.077Z,20.30
2022-09-09T16:51:48.693Z,20.26
2022-09-09T16:54:18.332Z,20.24
2022-09-09T16:56:48.793Z,20.23
2022-09-09T16:59:19.448Z,20.22
2022-09-09T17:01:50.032Z,20.21
2022-09-09T17:04:21.829Z,20.21
2022-09-09T17:06:52.335Z,20.20
2022-09-09T17:09:23.674Z,20.21
2022-09-09T17:11:53.317Z,20.20
2022-09-09T17:14:22.908Z,20.18
2022-09-09T17:16:50.877Z,20.15
2022-09-09T17:19:19.231Z,20.12
2022-09-09T17:24:39.626Z,20.06
2022-09-09T17:27:08.531Z,20.04
2022-09-09T17:29:39.549Z,20.04
2022-09-09T17:32:08.419Z,20.04
2022-09-09T17:34:37.423Z,20.04
2022-09-09T17:37:07.235Z,20.01
2022-09-09T17:39:35.443Z,19.97
2022-09-09T17:42:03.746Z,19.93
2022-09-09T17:44:33.550Z,19.91
2022-09-09T17:47:01.744Z,19.90
2022-09-09T17:49:29.689Z,19.88
2022-09-09T17:51:57.689Z,19.88
2022-09-09T17:54:25.810Z,19.88
2022-09-09T17:56:53.749Z,19.84
2022-09-09T17:59:21.660Z,19.84
2022-09-09T18:01:51.418Z,19.84
2022-09-09T18:04:20.446Z,19.84
2022-09-09T18:06:50.540Z,19.85
2022-09-09T18:09:23.277Z,19.86
2022-09-09T18:11:54.752Z,19.87
2022-09-09T18:14:26.179Z,19.88
2022-09-09T18:16:54.483Z,19.89
2022-09-09T18:19:25.658Z,19.89
2022-09-09T18:21:56.413Z,19.90
2022-09-09T18:24:27.406Z,19.87
2022-09-09T18:26:55.423Z,19.86
2022-09-09T18:29:27.555Z,19.85
2022-09-09T18:31:56.082Z,19.86
2022-09-09T18:34:28.980Z,19.87
2022-09-09T18:36:58.116Z,19.87
2022-09-09T18:39:29.218Z,19.85
2022-09-09T18:42:00.786Z,19.83
2022-09-09T18:44:33.976Z,19.79
2022-09-09T18:47:03.454Z,19.73
2022-09-09T18:49:33.511Z,19.72
2022-09-09T18:52:03.370Z,19.68
2022-09-09T18:54:33.591Z,19.64
2022-09-09T18:57:02.115Z,19.60
2022-09-09T18:59:30.701Z,19.59
2022-09-09T19:01:58.880Z,19.58
2022-09-09T19:04:27.673Z,19.57
2022-09-09T19:06:59.145Z,19.58
2022-09-09T19:09:31.636Z,19.59
2022-09-09T19:12:01.654Z,19.60
2022-09-09T19:14:30.545Z,19.61
2022-09-09T19:16:58.814Z,19.60
2022-09-09T19:19:29.788Z,19.60
2022-09-09T19:21:58.256Z,19.59
2022-09-09T19:24:29.678Z,19.58
2022-09-09T19:27:01.992Z,19.56
2022-09-09T19:29:33.161Z,19.51
2022-09-09T19:32:49.307Z,19.45
2022-09-09T19:34:52.413Z,19.39
2022-09-09T19:37:20.959Z,19.34
2022-09-09T19:39:49.843Z,19.26
2022-09-09T19:42:18.034Z,19.22
2022-09-09T19:44:46.705Z,19.20
2022-09-09T19:47:15.313Z,19.19
2022-09-09T19:49:47.260Z,19.20
2022-09-09T19:52:17.214Z,19.18
2022-09-09T19:54:46.870Z,19.17
2022-09-09T19:57:15.697Z,19.16
2022-09-09T19:59:44.094Z,19.15
2022-09-09T20:02:15.423Z,19.13
2022-09-09T20:04:44.726Z,19.08
2022-09-09T20:07:14.954Z,19.05
2022-09-09T20:09:42.888Z,19.04
2022-09-09T20:12:10.931Z,19.02
2022-09-09T20:14:40.052Z,18.97
2022-09-09T20:17:10.247Z,18.92
2022-09-09T20:19:40.106Z,18.88
2022-09-09T20:22:08.487Z,18.85
2022-09-09T20:24:37.274Z,18.85
2022-09-09T20:27:07.258Z,18.85
2022-09-09T20:29:36.634Z,18.85
2022-09-09T20:32:05.981Z,18.82
2022-09-09T20:34:34.872Z,18.77
2022-09-09T20:37:04.902Z,18.71
2022-09-09T20:39:33.219Z,18.66
2022-09-09T20:42:01.972Z,18.63
2022-09-09T20:44:31.525Z,18.61
2022-09-09T20:47:06.806Z,18.58
2022-09-09T20:49:37.664Z,18.49
2022-09-09T20:52:06.298Z,18.44
2022-09-09T20:54:36.228Z,18.41
2022-09-09T20:57:07.297Z,18.40
2022-09-09T20:59:35.526Z,18.42
2022-09-09T21:02:04.895Z,18.43
2022-09-09T21:04:37.520Z,18.43
2022-09-09T21:07:07.806Z,18.44
2022-09-09T21:09:36.473Z,18.45
2022-09-09T21:12:04.684Z,18.45
2022-09-09T21:14:32.881Z,18.41
2022-09-09T21:17:03.481Z,18.39
2022-09-09T21:19:31.724Z,18.38
2022-09-09T21:22:00.493Z,18.39
2022-09-09T21:24:29.343Z,18.40
2022-09-09T21:26:57.568Z,18.40
2022-09-09T21:29:25.554Z,18.36
2022-09-09T21:31:56.856Z,18.31
2022-09-09T21:34:25.066Z,18.29
2022-09-09T21:36:54.177Z,18.26
2022-09-09T21:39:22.535Z,18.25
2022-09-09T21:41:51.044Z,18.23
2022-09-09T21:44:19.539Z,18.18
2022-09-09T21:46:48.330Z,18.10
2022-09-09T21:49:16.350Z,18.03
2022-09-09T21:51:44.534Z,17.99
2022-09-09T21:54:18.891Z,17.96
2022-09-09T21:56:49.815Z,17.97
2022-09-09T21:59:17.929Z,17.99
2022-09-09T22:01:48.387Z,18.02
2022-09-09T22:04:16.445Z,18.03
2022-09-09T22:06:44.565Z,18.00
2022-09-09T22:09:12.749Z,17.98
2022-09-09T22:11:40.815Z,17.97
2022-09-09T22:14:09.397Z,17.98
2022-09-09T22:16:37.286Z,17.94
2022-09-09T22:19:05.371Z,17.92
2022-09-09T22:21:33.356Z,17.90
2022-09-09T22:24:04.702Z,17.86
2022-09-09T22:26:36.438Z,17.79
2022-09-09T22:29:06.384Z,17.75
2022-09-09T22:31:36.153Z,17.70
2022-09-09T22:34:05.219Z,17.66
2022-09-09T22:36:33.435Z,17.65
2022-09-09T22:39:02.046Z,17.65
2022-09-09T22:41:30.293Z,17.68
2022-09-09T22:43:59.033Z,17.70
2022-09-09T22:46:27.066Z,17.70
2022-09-09T22:48:55.040Z,17.68
2022-09-09T22:51:22.943Z,17.67
2022-09-09T22:53:50.854Z,17.66
2022-09-09T22:56:20.166Z,17.66
2022-09-09T22:58:55.751Z,17.67
2022-09-09T23:01:26.009Z,17.68
2022-09-09T23:03:59.239Z,17.69
2022-09-09T23:06:28.827Z,17.68
2022-09-09T23:08:59.869Z,17.64
2022-09-09T23:11:31.833Z,17.63
2022-09-09T23:14:02.043Z,17.65
2022-09-09T23:16:38.494Z,17.66
2022-09-09T23:19:10.108Z,17.66
2022-09-09T23:21:39.538Z,17.64
2022-09-09T23:24:08.938Z,17.64
2022-09-09T23:26:36.976Z,17.67
2022-09-09T23:29:05.227Z,17.70
2022-09-09T23:31:38.586Z,17.72
2022-09-09T23:34:06.720Z,17.73
2022-09-09T23:36:35.346Z,17.72
2022-09-09T23:39:06.466Z,17.72
2022-09-09T23:41:36.214Z,17.69
2022-09-09T23:44:05.594Z,17.65
2022-09-09T23:46:35.468Z,17.63
2022-09-09T23:49:04.536Z,17.64
2022-09-09T23:51:34.871Z,17.65
2022-09-09T23:54:04.958Z,17.69
2022-09-09T23:56:37.809Z,17.71
2022-09-09T23:59:07.703Z,17.74
